sensor_id;sensor_type;location;lat;lon;timestamp;P1;durP1;ratioP1;P2;durP2;ratioP2
56239;SDS011;42154;51.992;5.896;2023-02-28T00:01:09;6.07;;;3.20;;
56239;SDS011;42154;51.992;5.896;2023-02-28T00:03:35;5.40;;;3.00;;
56239;SDS011;42154;51.992;5.896;2023-02-28T00:06:02;5.10;;;3.10;;
56239;SDS011;42154;51.992;5.896;2023-02-28T00:08:29;6.22;;;3.53;;
56239;SDS011;42154;51.992;5.896;2023-02-28T00:10:55;5.22;;;3.70;;
56239;SDS011;42154;51.992;5.896;2023-02-28T00:13:20;4.70;;;3.45;;
56239;SDS011;42154;51.992;5.896;2023-02-28T00:15:46;3.10;;;2.55;;
56239;SDS011;42154;51.992;5.896;2023-02-28T00:18:12;4.80;;;2.90;;
56239;SDS011;42154;51.992;5.896;2023-02-28T00:20:38;4.28;;;3.38;;
56239;SDS011;42154;51.992;5.896;2023-02-28T00:23:04;3.72;;;2.88;;
56239;SDS011;42154;51.992;5.896;2023-02-28T00:25:30;4.65;;;2.60;;
56239;SDS011;42154;51.992;5.896;2023-02-28T00:27:56;4.78;;;3.00;;
56239;SDS011;42154;51.992;5.896;2023-02-28T00:30:22;3.35;;;2.58;;
56239;SDS011;42154;51.992;5.896;2023-02-28T00:32:48;5.22;;;2.80;;
56239;SDS011;42154;51.992;5.896;2023-02-28T00:35:15;5.00;;;2.70;;
56239;SDS011;42154;51.992;5.896;2023-02-28T00:37:43;5.70;;;2.88;;
56239;SDS011;42154;51.992;5.896;2023-02-28T00:40:09;5.38;;;2.72;;
56239;SDS011;42154;51.992;5.896;2023-02-28T00:42:36;8.75;;;3.60;;
56239;SDS011;42154;51.992;5.896;2023-02-28T00:45:03;4.43;;;3.08;;
56239;SDS011;42154;51.992;5.896;2023-02-28T00:47:29;7.82;;;3.22;;
56239;SDS011;42154;51.992;5.896;2023-02-28T00:49:55;5.22;;;3.20;;
56239;SDS011;42154;51.992;5.896;2023-02-28T00:52:21;6.07;;;3.72;;
56239;SDS011;42154;51.992;5.896;2023-02-28T00:54:47;6.65;;;3.35;;
56239;SDS011;42154;51.992;5.896;2023-02-28T00:57:13;4.88;;;3.30;;
56239;SDS011;42154;51.992;5.896;2023-02-28T00:59:39;5.13;;;3.20;;
56239;SDS011;42154;51.992;5.896;2023-02-28T01:02:05;6.45;;;3.72;;
56239;SDS011;42154;51.992;5.896;2023-02-28T01:04:31;5.38;;;3.45;;
56239;SDS011;42154;51.992;5.896;2023-02-28T01:07:00;5.47;;;2.97;;
56239;SDS011;42154;51.992;5.896;2023-02-28T01:09:27;6.00;;;3.03;;
56239;SDS011;42154;51.992;5.896;2023-02-28T01:11:53;7.22;;;3.22;;
56239;SDS011;42154;51.992;5.896;2023-02-28T01:14:19;5.28;;;2.63;;
56239;SDS011;42154;51.992;5.896;2023-02-28T01:16:45;3.42;;;2.80;;
56239;SDS011;42154;51.992;5.896;2023-02-28T01:19:11;3.83;;;2.88;;
56239;SDS011;42154;51.992;5.896;2023-02-28T01:21:37;5.13;;;3.22;;
56239;SDS011;42154;51.992;5.896;2023-02-28T01:24:04;10.25;;;3.42;;
56239;SDS011;42154;51.992;5.896;2023-02-28T01:26:31;6.60;;;3.90;;
56239;SDS011;42154;51.992;5.896;2023-02-28T01:28:56;7.18;;;3.70;;
56239;SDS011;42154;51.992;5.896;2023-02-28T01:31:24;6.65;;;3.33;;
56239;SDS011;42154;51.992;5.896;2023-02-28T01:33:50;5.28;;;3.28;;
56239;SDS011;42154;51.992;5.896;2023-02-28T01:36:18;4.03;;;2.97;;
56239;SDS011;42154;51.992;5.896;2023-02-28T01:38:49;5.57;;;2.67;;
56239;SDS011;42154;51.992;5.896;2023-02-28T01:41:17;5.30;;;2.78;;
56239;SDS011;42154;51.992;5.896;2023-02-28T01:46:12;5.10;;;3.25;;
56239;SDS011;42154;51.992;5.896;2023-02-28T01:48:40;5.97;;;3.30;;
56239;SDS011;42154;51.992;5.896;2023-02-28T01:51:17;4.60;;;3.33;;
56239;SDS011;42154;51.992;5.896;2023-02-28T01:53:53;5.60;;;3.22;;
56239;SDS011;42154;51.992;5.896;2023-02-28T01:56:26;4.72;;;2.90;;
56239;SDS011;42154;51.992;5.896;2023-02-28T01:58:55;3.55;;;2.70;;
56239;SDS011;42154;51.992;5.896;2023-02-28T02:01:22;3.15;;;2.70;;
56239;SDS011;42154;51.992;5.896;2023-02-28T02:03:56;3.80;;;3.08;;
56239;SDS011;42154;51.992;5.896;2023-02-28T02:06:25;5.13;;;3.15;;
56239;SDS011;42154;51.992;5.896;2023-02-28T02:08:54;5.60;;;3.60;;
56239;SDS011;42154;51.992;5.896;2023-02-28T02:11:20;5.10;;;3.45;;
56239;SDS011;42154;51.992;5.896;2023-02-28T02:17:21;4.63;;;3.10;;
56239;SDS011;42154;51.992;5.896;2023-02-28T02:25:28;5.13;;;3.42;;
56239;SDS011;42154;51.992;5.896;2023-02-28T02:36:49;6.18;;;3.83;;
56239;SDS011;42154;51.992;5.896;2023-02-28T02:39:02;6.28;;;3.50;;
56239;SDS011;42154;51.992;5.896;2023-02-28T02:41:51;7.63;;;3.72;;
56239;SDS011;42154;51.992;5.896;2023-02-28T02:44:55;5.55;;;3.50;;
56239;SDS011;42154;51.992;5.896;2023-02-28T02:47:19;5.28;;;2.97;;
56239;SDS011;42154;51.992;5.896;2023-02-28T02:49:52;5.90;;;3.40;;
56239;SDS011;42154;51.992;5.896;2023-02-28T02:52:23;5.47;;;3.13;;
56239;SDS011;42154;51.992;5.896;2023-02-28T02:54:55;4.90;;;2.75;;
56239;SDS011;42154;51.992;5.896;2023-02-28T03:00:05;5.40;;;3.65;;
56239;SDS011;42154;51.992;5.896;2023-02-28T03:02:34;4.55;;;3.03;;
56239;SDS011;42154;51.992;5.896;2023-02-28T03:05:07;5.72;;;3.00;;
56239;SDS011;42154;51.992;5.896;2023-02-28T03:07:39;4.05;;;3.47;;
56239;SDS011;42154;51.992;5.896;2023-02-28T03:10:25;3.97;;;3.30;;
56239;SDS011;42154;51.992;5.896;2023-02-28T03:13:11;5.05;;;3.15;;
56239;SDS011;42154;51.992;5.896;2023-02-28T03:15:57;5.50;;;3.63;;
56239;SDS011;42154;51.992;5.896;2023-02-28T03:18:43;3.95;;;3.00;;
56239;SDS011;42154;51.992;5.896;2023-02-28T03:21:36;4.68;;;2.70;;
56239;SDS011;42154;51.992;5.896;2023-02-28T03:24:33;4.07;;;3.25;;
56239;SDS011;42154;51.992;5.896;2023-02-28T03:27:11;4.05;;;3.20;;
56239;SDS011;42154;51.992;5.896;2023-02-28T03:29:47;4.47;;;3.28;;
56239;SDS011;42154;51.992;5.896;2023-02-28T03:35:22;3.00;;;2.60;;
56239;SDS011;42154;51.992;5.896;2023-02-28T03:37:58;3.63;;;2.80;;
56239;SDS011;42154;51.992;5.896;2023-02-28T03:40:31;6.40;;;3.15;;
56239;SDS011;42154;51.992;5.896;2023-02-28T03:43:20;5.82;;;3.70;;
56239;SDS011;42154;51.992;5.896;2023-02-28T03:45:46;4.97;;;2.97;;
56239;SDS011;42154;51.992;5.896;2023-02-28T03:50:44;3.58;;;2.88;;
56239;SDS011;42154;51.992;5.896;2023-02-28T03:53:15;4.25;;;2.67;;
56239;SDS011;42154;51.992;5.896;2023-02-28T03:56:05;6.32;;;2.90;;
56239;SDS011;42154;51.992;5.896;2023-02-28T03:58:57;2.23;;;1.77;;
56239;SDS011;42154;51.992;5.896;2023-02-28T04:04:17;2.78;;;2.13;;
56239;SDS011;42154;51.992;5.896;2023-02-28T04:06:43;2.67;;;1.77;;
56239;SDS011;42154;51.992;5.896;2023-02-28T04:09:11;4.50;;;1.83;;
56239;SDS011;42154;51.992;5.896;2023-02-28T04:11:42;4.00;;;1.92;;
56239;SDS011;42154;51.992;5.896;2023-02-28T04:14:16;3.03;;;1.73;;
56239;SDS011;42154;51.992;5.896;2023-02-28T04:16:42;2.92;;;1.70;;
56239;SDS011;42154;51.992;5.896;2023-02-28T04:19:09;1.63;;;1.30;;
56239;SDS011;42154;51.992;5.896;2023-02-28T04:21:38;2.28;;;1.40;;
56239;SDS011;42154;51.992;5.896;2023-02-28T04:24:05;3.05;;;1.63;;
56239;SDS011;42154;51.992;5.896;2023-02-28T04:26:39;1.90;;;1.30;;
56239;SDS011;42154;51.992;5.896;2023-02-28T04:29:08;4.68;;;1.70;;
56239;SDS011;42154;51.992;5.896;2023-02-28T04:31:34;4.35;;;1.63;;
56239;SDS011;42154;51.992;5.896;2023-02-28T04:34:00;3.10;;;1.50;;
56239;SDS011;42154;51.992;5.896;2023-02-28T04:36:26;4.20;;;1.58;;
56239;SDS011;42154;51.992;5.896;2023-02-28T04:38:52;3.17;;;1.92;;
56239;SDS011;42154;51.992;5.896;2023-02-28T04:41:18;3.30;;;1.90;;
56239;SDS011;42154;51.992;5.896;2023-02-28T04:43:44;2.60;;;1.95;;
56239;SDS011;42154;51.992;5.896;2023-02-28T04:46:10;3.45;;;1.95;;
56239;SDS011;42154;51.992;5.896;2023-02-28T04:48:37;3.85;;;1.83;;
56239;SDS011;42154;51.992;5.896;2023-02-28T04:51:08;4.20;;;2.88;;
56239;SDS011;42154;51.992;5.896;2023-02-28T04:53:36;4.38;;;2.65;;
56239;SDS011;42154;51.992;5.896;2023-02-28T04:56:04;3.42;;;2.20;;
56239;SDS011;42154;51.992;5.896;2023-02-28T04:58:31;3.00;;;2.20;;
56239;SDS011;42154;51.992;5.896;2023-02-28T05:01:04;3.08;;;2.20;;
56239;SDS011;42154;51.992;5.896;2023-02-28T05:03:40;2.90;;;2.30;;
56239;SDS011;42154;51.992;5.896;2023-02-28T05:06:07;5.82;;;2.30;;
56239;SDS011;42154;51.992;5.896;2023-02-28T05:08:33;3.88;;;2.30;;
56239;SDS011;42154;51.992;5.896;2023-02-28T05:10:59;5.38;;;2.38;;
56239;SDS011;42154;51.992;5.896;2023-02-28T05:13:26;3.08;;;1.70;;
56239;SDS011;42154;51.992;5.896;2023-02-28T05:15:53;3.35;;;2.30;;
56239;SDS011;42154;51.992;5.896;2023-02-28T05:18:19;4.13;;;2.53;;
56239;SDS011;42154;51.992;5.896;2023-02-28T05:20:44;3.75;;;1.90;;
56239;SDS011;42154;51.992;5.896;2023-02-28T05:23:11;2.92;;;2.00;;
56239;SDS011;42154;51.992;5.896;2023-02-28T05:25:39;3.58;;;1.90;;
56239;SDS011;42154;51.992;5.896;2023-02-28T05:28:05;3.17;;;2.08;;
56239;SDS011;42154;51.992;5.896;2023-02-28T05:30:31;4.05;;;2.10;;
56239;SDS011;42154;51.992;5.896;2023-02-28T05:32:57;3.22;;;1.80;;
56239;SDS011;42154;51.992;5.896;2023-02-28T05:35:24;4.63;;;2.00;;
56239;SDS011;42154;51.992;5.896;2023-02-28T05:37:50;2.72;;;2.03;;
56239;SDS011;42154;51.992;5.896;2023-02-28T05:40:16;3.33;;;1.85;;
56239;SDS011;42154;51.992;5.896;2023-02-28T05:42:42;3.10;;;2.30;;
56239;SDS011;42154;51.992;5.896;2023-02-28T05:45:08;3.03;;;1.95;;
56239;SDS011;42154;51.992;5.896;2023-02-28T05:47:35;3.97;;;1.90;;
56239;SDS011;42154;51.992;5.896;2023-02-28T05:50:01;3.50;;;1.92;;
56239;SDS011;42154;51.992;5.896;2023-02-28T05:52:28;3.75;;;1.95;;
56239;SDS011;42154;51.992;5.896;2023-02-28T05:54:55;3.20;;;2.17;;
56239;SDS011;42154;51.992;5.896;2023-02-28T05:57:21;3.55;;;2.30;;
56239;SDS011;42154;51.992;5.896;2023-02-28T05:59:47;3.47;;;2.22;;
56239;SDS011;42154;51.992;5.896;2023-02-28T06:02:13;2.72;;;2.00;;
56239;SDS011;42154;51.992;5.896;2023-02-28T06:04:41;2.47;;;2.05;;
56239;SDS011;42154;51.992;5.896;2023-02-28T06:07:07;1.80;;;1.40;;
56239;SDS011;42154;51.992;5.896;2023-02-28T06:09:33;2.33;;;1.52;;
56239;SDS011;42154;51.992;5.896;2023-02-28T06:12:00;2.63;;;1.55;;
56239;SDS011;42154;51.992;5.896;2023-02-28T06:14:29;1.83;;;1.35;;
56239;SDS011;42154;51.992;5.896;2023-02-28T06:16:56;2.95;;;1.48;;
56239;SDS011;42154;51.992;5.896;2023-02-28T06:19:23;4.45;;;2.00;;
56239;SDS011;42154;51.992;5.896;2023-02-28T06:21:51;2.45;;;1.55;;
56239;SDS011;42154;51.992;5.896;2023-02-28T06:24:18;2.42;;;1.70;;
56239;SDS011;42154;51.992;5.896;2023-02-28T06:26:48;1.65;;;1.25;;
56239;SDS011;42154;51.992;5.896;2023-02-28T06:29:14;2.75;;;1.33;;
56239;SDS011;42154;51.992;5.896;2023-02-28T06:31:44;2.63;;;1.60;;
56239;SDS011;42154;51.992;5.896;2023-02-28T06:34:10;2.35;;;1.20;;
56239;SDS011;42154;51.992;5.896;2023-02-28T06:36:38;3.45;;;1.73;;
56239;SDS011;42154;51.992;5.896;2023-02-28T06:39:05;2.38;;;1.48;;
56239;SDS011;42154;51.992;5.896;2023-02-28T06:41:31;1.77;;;1.38;;
56239;SDS011;42154;51.992;5.896;2023-02-28T06:44:13;2.15;;;1.48;;
56239;SDS011;42154;51.992;5.896;2023-02-28T06:46:41;3.10;;;1.40;;
56239;SDS011;42154;51.992;5.896;2023-02-28T06:49:07;2.25;;;1.00;;
56239;SDS011;42154;51.992;5.896;2023-02-28T06:51:34;1.65;;;1.20;;
56239;SDS011;42154;51.992;5.896;2023-02-28T06:54:01;2.70;;;1.10;;
56239;SDS011;42154;51.992;5.896;2023-02-28T06:56:28;1.80;;;1.05;;
56239;SDS011;42154;51.992;5.896;2023-02-28T06:58:53;2.45;;;1.08;;
56239;SDS011;42154;51.992;5.896;2023-02-28T07:01:19;2.78;;;1.23;;
56239;SDS011;42154;51.992;5.896;2023-02-28T07:03:45;2.00;;;1.38;;
56239;SDS011;42154;51.992;5.896;2023-02-28T07:06:11;3.22;;;1.20;;
56239;SDS011;42154;51.992;5.896;2023-02-28T07:08:37;3.35;;;1.30;;
56239;SDS011;42154;51.992;5.896;2023-02-28T07:11:05;2.22;;;1.45;;
56239;SDS011;42154;51.992;5.896;2023-02-28T07:13:31;1.92;;;1.48;;
56239;SDS011;42154;51.992;5.896;2023-02-28T07:15:57;2.60;;;1.60;;
56239;SDS011;42154;51.992;5.896;2023-02-28T07:18:24;2.80;;;1.27;;
56239;SDS011;42154;51.992;5.896;2023-02-28T07:20:50;2.63;;;1.30;;
56239;SDS011;42154;51.992;5.896;2023-02-28T07:23:16;1.85;;;1.10;;
56239;SDS011;42154;51.992;5.896;2023-02-28T07:25:42;1.95;;;1.40;;
56239;SDS011;42154;51.992;5.896;2023-02-28T07:28:08;1.92;;;1.33;;
56239;SDS011;42154;51.992;5.896;2023-02-28T07:30:34;3.20;;;1.52;;
56239;SDS011;42154;51.992;5.896;2023-02-28T07:33:00;2.88;;;1.50;;
56239;SDS011;42154;51.992;5.896;2023-02-28T07:35:26;3.63;;;1.90;;
56239;SDS011;42154;51.992;5.896;2023-02-28T07:37:52;1.77;;;1.63;;
56239;SDS011;42154;51.992;5.896;2023-02-28T07:40:17;3.08;;;1.90;;
56239;SDS011;42154;51.992;5.896;2023-02-28T07:42:43;2.97;;;1.80;;
56239;SDS011;42154;51.992;5.896;2023-02-28T07:45:10;3.55;;;1.63;;
56239;SDS011;42154;51.992;5.896;2023-02-28T07:47:40;3.70;;;2.00;;
56239;SDS011;42154;51.992;5.896;2023-02-28T07:50:07;3.00;;;1.40;;
56239;SDS011;42154;51.992;5.896;2023-02-28T07:52:38;2.92;;;2.03;;
56239;SDS011;42154;51.992;5.896;2023-02-28T07:55:05;5.07;;;2.00;;
56239;SDS011;42154;51.992;5.896;2023-02-28T07:57:33;3.78;;;1.98;;
56239;SDS011;42154;51.992;5.896;2023-02-28T07:59:59;2.70;;;1.85;;
56239;SDS011;42154;51.992;5.896;2023-02-28T08:02:24;2.92;;;2.35;;
56239;SDS011;42154;51.992;5.896;2023-02-28T08:04:50;3.10;;;2.22;;
56239;SDS011;42154;51.992;5.896;2023-02-28T08:07:16;3.28;;;2.10;;
56239;SDS011;42154;51.992;5.896;2023-02-28T08:09:43;3.67;;;2.08;;
56239;SDS011;42154;51.992;5.896;2023-02-28T08:12:09;3.92;;;2.15;;
56239;SDS011;42154;51.992;5.896;2023-02-28T08:14:35;3.40;;;2.00;;
56239;SDS011;42154;51.992;5.896;2023-02-28T08:17:02;3.15;;;1.90;;
56239;SDS011;42154;51.992;5.896;2023-02-28T08:19:28;1.95;;;1.65;;
56239;SDS011;42154;51.992;5.896;2023-02-28T08:21:55;2.45;;;1.63;;
56239;SDS011;42154;51.992;5.896;2023-02-28T08:24:20;4.30;;;1.88;;
56239;SDS011;42154;51.992;5.896;2023-02-28T08:26:46;2.55;;;1.90;;
56239;SDS011;42154;51.992;5.896;2023-02-28T08:29:12;3.05;;;1.50;;
56239;SDS011;42154;51.992;5.896;2023-02-28T08:31:38;2.67;;;2.00;;
56239;SDS011;42154;51.992;5.896;2023-02-28T08:34:07;7.07;;;2.38;;
56239;SDS011;42154;51.992;5.896;2023-02-28T08:36:38;3.17;;;2.00;;
56239;SDS011;42154;51.992;5.896;2023-02-28T08:39:05;2.15;;;1.65;;
56239;SDS011;42154;51.992;5.896;2023-02-28T08:41:32;2.83;;;1.77;;
56239;SDS011;42154;51.992;5.896;2023-02-28T08:43:58;1.92;;;1.30;;
56239;SDS011;42154;51.992;5.896;2023-02-28T08:46:24;2.55;;;1.67;;
56239;SDS011;42154;51.992;5.896;2023-02-28T08:48:53;2.20;;;1.65;;
56239;SDS011;42154;51.992;5.896;2023-02-28T08:51:21;1.58;;;1.13;;
56239;SDS011;42154;51.992;5.896;2023-02-28T08:53:55;1.83;;;1.27;;
56239;SDS011;42154;51.992;5.896;2023-02-28T08:56:23;1.60;;;1.35;;
56239;SDS011;42154;51.992;5.896;2023-02-28T08:58:49;2.05;;;1.65;;
56239;SDS011;42154;51.992;5.896;2023-02-28T09:03:43;3.00;;;1.92;;
56239;SDS011;42154;51.992;5.896;2023-02-28T09:06:11;2.95;;;1.40;;
56239;SDS011;42154;51.992;5.896;2023-02-28T09:08:37;1.60;;;1.20;;
56239;SDS011;42154;51.992;5.896;2023-02-28T09:11:03;3.78;;;1.40;;
56239;SDS011;42154;51.992;5.896;2023-02-28T09:13:30;2.22;;;1.15;;
56239;SDS011;42154;51.992;5.896;2023-02-28T09:15:57;2.97;;;1.55;;
56239;SDS011;42154;51.992;5.896;2023-02-28T09:18:24;2.20;;;1.40;;
56239;SDS011;42154;51.992;5.896;2023-02-28T09:20:51;2.65;;;1.17;;
56239;SDS011;42154;51.992;5.896;2023-02-28T09:23:17;2.22;;;1.27;;
56239;SDS011;42154;51.992;5.896;2023-02-28T09:25:46;2.55;;;1.10;;
56239;SDS011;42154;51.992;5.896;2023-02-28T09:28:13;1.42;;;1.02;;
56239;SDS011;42154;51.992;5.896;2023-02-28T09:30:46;2.15;;;1.25;;
56239;SDS011;42154;51.992;5.896;2023-02-28T09:33:14;2.60;;;1.50;;
56239;SDS011;42154;51.992;5.896;2023-02-28T09:35:40;1.40;;;1.20;;
56239;SDS011;42154;51.992;5.896;2023-02-28T09:38:08;3.20;;;1.40;;
56239;SDS011;42154;51.992;5.896;2023-02-28T09:40:55;1.55;;;1.10;;
56239;SDS011;42154;51.992;5.896;2023-02-28T09:43:29;1.50;;;1.25;;
56239;SDS011;42154;51.992;5.896;2023-02-28T09:48:37;1.25;;;1.00;;
56239;SDS011;42154;51.992;5.896;2023-02-28T09:54:15;1.67;;;1.35;;
56239;SDS011;42154;51.992;5.896;2023-02-28T09:56:44;1.40;;;1.30;;
56239;SDS011;42154;51.992;5.896;2023-02-28T10:13:02;1.67;;;1.10;;
56239;SDS011;42154;51.992;5.896;2023-02-28T10:15:32;1.77;;;1.23;;
56239;SDS011;42154;51.992;5.896;2023-02-28T10:18:02;3.13;;;1.10;;
56239;SDS011;42154;51.992;5.896;2023-02-28T10:20:31;2.60;;;1.20;;
56239;SDS011;42154;51.992;5.896;2023-02-28T10:26:14;3.45;;;1.35;;
56239;SDS011;42154;51.992;5.896;2023-02-28T10:28:44;1.63;;;0.77;;
56239;SDS011;42154;51.992;5.896;2023-02-28T10:31:17;1.75;;;1.10;;
56239;SDS011;42154;51.992;5.896;2023-02-28T10:33:44;1.73;;;0.93;;
56239;SDS011;42154;51.992;5.896;2023-02-28T10:36:14;1.33;;;1.00;;
56239;SDS011;42154;51.992;5.896;2023-02-28T10:38:43;1.02;;;0.93;;
56239;SDS011;42154;51.992;5.896;2023-02-28T10:41:11;3.38;;;1.10;;
56239;SDS011;42154;51.992;5.896;2023-02-28T10:43:40;2.00;;;1.38;;
56239;SDS011;42154;51.992;5.896;2023-02-28T10:48:45;1.55;;;1.20;;
56239;SDS011;42154;51.992;5.896;2023-02-28T10:51:24;1.77;;;1.10;;
56239;SDS011;42154;51.992;5.896;2023-02-28T10:53:51;2.58;;;1.05;;
56239;SDS011;42154;51.992;5.896;2023-02-28T10:56:25;1.67;;;0.90;;
56239;SDS011;42154;51.992;5.896;2023-02-28T10:58:53;2.53;;;1.00;;
56239;SDS011;42154;51.992;5.896;2023-02-28T11:01:34;2.08;;;0.90;;
56239;SDS011;42154;51.992;5.896;2023-02-28T11:06:34;2.35;;;1.30;;
56239;SDS011;42154;51.992;5.896;2023-02-28T11:09:22;2.17;;;1.27;;
56239;SDS011;42154;51.992;5.896;2023-02-28T11:11:46;1.80;;;1.20;;
56239;SDS011;42154;51.992;5.896;2023-02-28T11:14:18;2.17;;;1.40;;
56239;SDS011;42154;51.992;5.896;2023-02-28T11:16:53;1.80;;;1.40;;
56239;SDS011;42154;51.992;5.896;2023-02-28T11:19:39;1.85;;;1.10;;
56239;SDS011;42154;51.992;5.896;2023-02-28T11:22:09;3.53;;;1.45;;
56239;SDS011;42154;51.992;5.896;2023-02-28T11:27:54;1.90;;;1.27;;
56239;SDS011;42154;51.992;5.896;2023-02-28T11:30:22;2.00;;;1.48;;
56239;SDS011;42154;51.992;5.896;2023-02-28T11:32:53;1.98;;;1.40;;
56239;SDS011;42154;51.992;5.896;2023-02-28T11:35:40;1.40;;;1.20;;
56239;SDS011;42154;51.992;5.896;2023-02-28T11:38:09;1.42;;;1.00;;
56239;SDS011;42154;51.992;5.896;2023-02-28T11:46:51;2.13;;;1.30;;
56239;SDS011;42154;51.992;5.896;2023-02-28T11:49:37;1.67;;;1.40;;
56239;SDS011;42154;51.992;5.896;2023-02-28T11:52:20;1.85;;;1.35;;
56239;SDS011;42154;51.992;5.896;2023-02-28T11:55:12;1.45;;;1.10;;
56239;SDS011;42154;51.992;5.896;2023-02-28T12:03:22;2.03;;;1.40;;
56239;SDS011;42154;51.992;5.896;2023-02-28T12:16:34;3.45;;;1.77;;
56239;SDS011;42154;51.992;5.896;2023-02-28T12:19:31;2.33;;;1.70;;
56239;SDS011;42154;51.992;5.896;2023-02-28T12:27:59;2.30;;;1.45;;
56239;SDS011;42154;51.992;5.896;2023-02-28T12:30:28;1.52;;;1.40;;
56239;SDS011;42154;51.992;5.896;2023-02-28T12:35:49;2.55;;;2.00;;
56239;SDS011;42154;51.992;5.896;2023-02-28T12:43:49;2.17;;;1.42;;
56239;SDS011;42154;51.992;5.896;2023-02-28T12:46:21;3.55;;;1.75;;
56239;SDS011;42154;51.992;5.896;2023-02-28T12:48:52;2.50;;;1.83;;
56239;SDS011;42154;51.992;5.896;2023-02-28T12:51:22;1.85;;;1.50;;
56239;SDS011;42154;51.992;5.896;2023-02-28T12:59:50;2.63;;;1.50;;
56239;SDS011;42154;51.992;5.896;2023-02-28T13:05:06;1.73;;;1.40;;
56239;SDS011;42154;51.992;5.896;2023-02-28T13:08:01;1.50;;;1.20;;
56239;SDS011;42154;51.992;5.896;2023-02-28T13:13:15;3.67;;;1.50;;
56239;SDS011;42154;51.992;5.896;2023-02-28T13:15:56;2.65;;;1.50;;
56239;SDS011;42154;51.992;5.896;2023-02-28T13:18:37;2.60;;;1.42;;
56239;SDS011;42154;51.992;5.896;2023-02-28T13:21:27;2.00;;;1.42;;
56239;SDS011;42154;51.992;5.896;2023-02-28T13:24:01;2.20;;;1.58;;
56239;SDS011;42154;51.992;5.896;2023-02-28T13:39:58;1.70;;;1.30;;
56239;SDS011;42154;51.992;5.896;2023-02-28T13:42:36;3.30;;;1.60;;
56239;SDS011;42154;51.992;5.896;2023-02-28T13:45:24;2.13;;;1.60;;
56239;SDS011;42154;51.992;5.896;2023-02-28T13:47:52;2.75;;;1.50;;
56239;SDS011;42154;51.992;5.896;2023-02-28T13:53:08;2.13;;;1.55;;
56239;SDS011;42154;51.992;5.896;2023-02-28T14:03:59;1.90;;;1.50;;
56239;SDS011;42154;51.992;5.896;2023-02-28T14:06:51;2.03;;;1.48;;
56239;SDS011;42154;51.992;5.896;2023-02-28T14:09:36;2.17;;;1.60;;
56239;SDS011;42154;51.992;5.896;2023-02-28T14:20:36;2.50;;;1.38;;
56239;SDS011;42154;51.992;5.896;2023-02-28T14:26:01;2.17;;;1.42;;
56239;SDS011;42154;51.992;5.896;2023-02-28T14:31:16;1.92;;;1.40;;
56239;SDS011;42154;51.992;5.896;2023-02-28T14:36:38;2.47;;;1.40;;
56239;SDS011;42154;51.992;5.896;2023-02-28T14:39:07;2.72;;;1.50;;
56239;SDS011;42154;51.992;5.896;2023-02-28T14:41:37;2.70;;;1.17;;
56239;SDS011;42154;51.992;5.896;2023-02-28T14:46:42;4.68;;;1.73;;
56239;SDS011;42154;51.992;5.896;2023-02-28T14:49:16;2.65;;;1.70;;
56239;SDS011;42154;51.992;5.896;2023-02-28T14:52:01;1.95;;;1.55;;
56239;SDS011;42154;51.992;5.896;2023-02-28T14:54:35;2.38;;;1.50;;
56239;SDS011;42154;51.992;5.896;2023-02-28T14:57:02;2.35;;;1.20;;
56239;SDS011;42154;51.992;5.896;2023-02-28T14:59:29;2.20;;;1.40;;
56239;SDS011;42154;51.992;5.896;2023-02-28T15:04:59;1.92;;;1.30;;
56239;SDS011;42154;51.992;5.896;2023-02-28T15:07:28;1.90;;;1.42;;
56239;SDS011;42154;51.992;5.896;2023-02-28T15:12:37;3.45;;;1.40;;
56239;SDS011;42154;51.992;5.896;2023-02-28T15:15:05;3.20;;;1.63;;
56239;SDS011;42154;51.992;5.896;2023-02-28T15:17:32;2.28;;;1.40;;
56239;SDS011;42154;51.992;5.896;2023-02-28T15:20:00;1.63;;;1.30;;
56239;SDS011;42154;51.992;5.896;2023-02-28T15:22:28;2.45;;;1.65;;
56239;SDS011;42154;51.992;5.896;2023-02-28T15:24:59;2.03;;;1.40;;
56239;SDS011;42154;51.992;5.896;2023-02-28T15:27:26;2.05;;;1.35;;
56239;SDS011;42154;51.992;5.896;2023-02-28T15:29:56;2.00;;;1.40;;
56239;SDS011;42154;51.992;5.896;2023-02-28T15:32:34;2.97;;;1.50;;
56239;SDS011;42154;51.992;5.896;2023-02-28T15:37:54;2.67;;;1.73;;
56239;SDS011;42154;51.992;5.896;2023-02-28T15:40:28;2.08;;;1.58;;
56239;SDS011;42154;51.992;5.896;2023-02-28T15:43:03;1.65;;;1.30;;
56239;SDS011;42154;51.992;5.896;2023-02-28T15:45:33;2.75;;;1.48;;
56239;SDS011;42154;51.992;5.896;2023-02-28T15:48:03;1.58;;;1.30;;
56239;SDS011;42154;51.992;5.896;2023-02-28T15:50:41;2.35;;;1.50;;
56239;SDS011;42154;51.992;5.896;2023-02-28T15:53:12;1.77;;;1.40;;
56239;SDS011;42154;51.992;5.896;2023-02-28T15:55:40;2.00;;;1.58;;
56239;SDS011;42154;51.992;5.896;2023-02-28T15:58:07;2.33;;;1.42;;
56239;SDS011;42154;51.992;5.896;2023-02-28T16:00:38;1.58;;;0.90;;
56239;SDS011;42154;51.992;5.896;2023-02-28T16:03:23;2.58;;;1.60;;
56239;SDS011;42154;51.992;5.896;2023-02-28T16:09:08;2.13;;;1.65;;
56239;SDS011;42154;51.992;5.896;2023-02-28T16:11:37;1.58;;;1.20;;
56239;SDS011;42154;51.992;5.896;2023-02-28T16:14:06;3.08;;;1.50;;
56239;SDS011;42154;51.992;5.896;2023-02-28T16:16:42;1.92;;;1.40;;
56239;SDS011;42154;51.992;5.896;2023-02-28T16:19:09;1.67;;;1.35;;
56239;SDS011;42154;51.992;5.896;2023-02-28T16:21:35;1.40;;;1.30;;
56239;SDS011;42154;51.992;5.896;2023-02-28T16:24:00;1.67;;;1.30;;
56239;SDS011;42154;51.992;5.896;2023-02-28T16:26:26;2.20;;;1.35;;
56239;SDS011;42154;51.992;5.896;2023-02-28T16:28:53;3.22;;;1.48;;
56239;SDS011;42154;51.992;5.896;2023-02-28T16:31:20;2.25;;;1.50;;
56239;SDS011;42154;51.992;5.896;2023-02-28T16:33:46;2.80;;;1.80;;
56239;SDS011;42154;51.992;5.896;2023-02-28T16:36:13;2.10;;;1.40;;
56239;SDS011;42154;51.992;5.896;2023-02-28T16:38:40;3.78;;;1.40;;
56239;SDS011;42154;51.992;5.896;2023-02-28T16:41:06;3.05;;;1.50;;
56239;SDS011;42154;51.992;5.896;2023-02-28T16:43:32;2.30;;;1.90;;
56239;SDS011;42154;51.992;5.896;2023-02-28T16:45:58;1.63;;;1.48;;
56239;SDS011;42154;51.992;5.896;2023-02-28T16:48:24;2.75;;;1.48;;
56239;SDS011;42154;51.992;5.896;2023-02-28T16:50:50;3.17;;;1.42;;
56239;SDS011;42154;51.992;5.896;2023-02-28T16:53:16;2.78;;;1.70;;
56239;SDS011;42154;51.992;5.896;2023-02-28T16:55:42;4.78;;;1.90;;
56239;SDS011;42154;51.992;5.896;2023-02-28T16:58:10;3.72;;;1.40;;
56239;SDS011;42154;51.992;5.896;2023-02-28T17:00:42;1.80;;;1.38;;
56239;SDS011;42154;51.992;5.896;2023-02-28T17:03:25;3.72;;;1.40;;
56239;SDS011;42154;51.992;5.896;2023-02-28T17:05:52;1.38;;;1.15;;
56239;SDS011;42154;51.992;5.896;2023-02-28T17:08:18;1.80;;;1.30;;
56239;SDS011;42154;51.992;5.896;2023-02-28T17:10:44;1.88;;;1.30;;
56239;SDS011;42154;51.992;5.896;2023-02-28T17:13:10;3.25;;;1.27;;
56239;SDS011;42154;51.992;5.896;2023-02-28T17:15:36;2.53;;;1.30;;
56239;SDS011;42154;51.992;5.896;2023-02-28T17:18:03;1.38;;;1.23;;
56239;SDS011;42154;51.992;5.896;2023-02-28T17:20:29;2.67;;;1.30;;
56239;SDS011;42154;51.992;5.896;2023-02-28T17:22:55;3.35;;;1.10;;
56239;SDS011;42154;51.992;5.896;2023-02-28T17:25:22;1.85;;;1.30;;
56239;SDS011;42154;51.992;5.896;2023-02-28T17:27:48;1.67;;;1.05;;
56239;SDS011;42154;51.992;5.896;2023-02-28T17:30:20;2.33;;;1.45;;
56239;SDS011;42154;51.992;5.896;2023-02-28T17:32:48;2.55;;;1.42;;
56239;SDS011;42154;51.992;5.896;2023-02-28T17:35:14;2.15;;;1.38;;
56239;SDS011;42154;51.992;5.896;2023-02-28T17:37:40;2.17;;;1.75;;
56239;SDS011;42154;51.992;5.896;2023-02-28T17:40:06;3.10;;;1.80;;
56239;SDS011;42154;51.992;5.896;2023-02-28T17:42:40;2.38;;;1.50;;
56239;SDS011;42154;51.992;5.896;2023-02-28T17:45:06;2.00;;;1.40;;
56239;SDS011;42154;51.992;5.896;2023-02-28T17:47:32;2.85;;;1.75;;
56239;SDS011;42154;51.992;5.896;2023-02-28T17:49:58;3.13;;;1.90;;
56239;SDS011;42154;51.992;5.896;2023-02-28T17:52:24;3.35;;;2.20;;